Time;durP1;ratioP1;P1;durP2;ratioP2;P2;SDS_P1;SDS_P2;PMS_P1;PMS_P2;Temp;Humidity;BMP_temperature;BMP_pressure;BME280_temperature;BME280_humidity;BME280_pressure;Samples;Min_cycle;Max_cycle;Signal;HPM_P1;HPM_P2
2021/12/19 20:50:36;;;;;;;27.03;15.97;;;;;;;2.15;100.00;151918.09;5068178;27;21080;-82
2021/12/19 20:53:11;;;;;;;26.07;14.30;;;;;;;2.15;100.00;151918.09;5075618;28;20531;-82
2021/12/19 20:55:47;;;;;;;26.90;15.03;;;;;;;2.23;100.00;151939.97;5065963;28;20789;-80
2021/12/19 20:58:23;;;;;;;31.17;19.07;;;;;;;2.27;100.00;151948.97;5066076;28;20864;-81
2021/12/19 21:01:00;;;;;;;25.40;15.70;;;;;;;2.31;100.00;151960.53;5069935;28;20478;-81
2021/12/19 21:03:36;;;;;;;21.53;13.30;;;;;;;2.37;100.00;151976.00;5064287;28;20450;-81
2021/12/19 21:06:12;;;;;;;23.00;14.20;;;;;;;2.39;100.00;151981.13;5066255;28;20439;-82
2021/12/19 21:08:48;;;;;;;23.13;13.67;;;;;;;2.41;100.00;151984.97;5083396;28;20453;-81
2021/12/19 21:11:25;;;;;;;18.30;12.50;;;;;;;2.41;100.00;151986.25;5061956;28;20447;-81
2021/12/19 21:14:08;;;;;;;22.43;13.63;;;;;;;2.42;100.00;151987.53;5064841;28;20441;-81
2021/12/19 21:19:38;;;;;;;21.27;12.10;;;;;;;2.45;100.00;151995.28;5042648;28;20481;-81
2021/12/19 21:22:15;;;;;;;20.10;12.60;;;;;;;2.45;100.00;151996.56;5067121;28;20866;-81
2021/12/19 21:24:51;;;;;;;21.07;13.20;;;;;;;2.47;100.00;152001.69;5068412;28;20458;-81
2021/12/19 21:27:26;;;;;;;22.17;14.57;;;;;;;2.49;100.00;152004.28;5072204;28;20442;-81
2021/12/19 21:30:03;;;;;;;18.03;12.10;;;;;;;2.51;100.00;152010.72;5067724;28;20543;-82
2021/12/19 21:32:39;;;;;;;18.73;13.30;;;;;;;2.54;100.00;152017.16;5067068;28;20773;-81
2021/12/19 21:35:34;;;;;;;23.13;14.27;;;;;;;2.55;100.00;152019.69;5064454;28;20454;-81
2021/12/19 21:41:06;;;;;;;21.77;13.20;;;;;;;2.53;100.00;152015.84;5078602;28;20442;-81
2021/12/19 21:43:42;;;;;;;17.83;11.97;;;;;;;2.55;100.00;152020.97;5077876;28;20456;-81
2021/12/19 21:46:18;;;;;;;21.80;14.67;;;;;;;2.56;100.00;152023.56;5068909;28;20943;-81
2021/12/19 21:48:53;;;;;;;19.80;14.17;;;;;;;2.57;100.00;152024.88;5066211;28;20487;-81
2021/12/19 21:51:29;;;;;;;19.47;12.97;;;;;;;2.58;100.00;152027.41;5060285;28;20881;-81
2021/12/19 21:54:06;;;;;;;19.30;12.27;;;;;;;2.58;100.00;152027.41;5066659;28;20449;-84
2021/12/19 21:56:42;;;;;;;19.03;13.40;;;;;;;2.59;100.00;152030.00;5067831;28;20453;-83
2021/12/19 21:59:17;;;;;;;19.23;12.60;;;;;;;2.56;100.00;152022.28;5065478;28;20505;-83
2021/12/19 22:01:52;;;;;;;18.73;12.57;;;;;;;2.57;100.00;152024.88;5051575;28;20437;-83
2021/12/19 22:04:28;;;;;;;20.67;12.73;;;;;;;2.59;100.00;152030.00;5050043;28;20459;-83
2021/12/19 22:07:04;;;;;;;20.13;14.40;;;;;;;2.60;100.00;152033.84;5045644;28;20465;-83
2021/12/19 22:09:41;;;;;;;19.37;13.70;;;;;;;2.64;100.00;152042.84;5039042;28;20860;-83
2021/12/19 22:12:27;;;;;;;16.40;12.37;;;;;;;2.65;100.00;152046.69;5054389;28;20541;-83
2021/12/19 22:17:57;;;;;;;17.63;13.10;;;;;;;2.66;100.00;152048.00;5038824;28;20446;-83
2021/12/19 22:20:34;;;;;;;20.47;12.70;;;;;;;2.64;100.00;152044.16;5056639;28;20461;-83
2021/12/19 22:23:10;;;;;;;19.33;13.40;;;;;;;2.67;100.00;152051.88;5051477;28;20895;-83
2021/12/19 22:25:47;;;;;;;20.90;13.67;;;;;;;2.68;100.00;152053.13;5054954;28;20455;-83
2021/12/19 22:28:22;;;;;;;17.93;12.83;;;;;;;2.69;100.00;152055.72;5034988;28;20462;-83
2021/12/19 22:30:59;;;;;;;18.40;13.00;;;;;;;2.72;100.00;152063.44;5044746;28;20532;-83
2021/12/19 22:33:34;;;;;;;18.90;13.67;;;;;;;2.71;100.00;152060.84;5052695;28;20924;-83
2021/12/19 22:36:10;;;;;;;18.50;12.57;;;;;;;2.72;100.00;152063.44;5052171;28;20807;-83
2021/12/19 22:38:46;;;;;;;18.40;12.83;;;;;;;2.73;100.00;152067.28;5062956;28;20450;-83
2021/12/19 22:41:23;;;;;;;20.97;13.87;;;;;;;2.72;100.00;152063.44;5068058;28;20462;-83
2021/12/19 22:44:02;;;;;;;20.40;13.63;;;;;;;2.74;100.00;152069.88;5052504;28;20453;-83
2021/12/19 22:46:38;;;;;;;18.27;13.30;;;;;;;2.74;100.00;152068.56;5053461;28;20443;-83
2021/12/19 22:49:14;;;;;;;21.40;13.23;;;;;;;2.74;100.00;152069.88;5054582;28;20481;-83
2021/12/19 22:51:49;;;;;;;20.33;14.93;;;;;;;2.73;100.00;152067.28;5044533;28;20449;-83
2021/12/19 22:54:25;;;;;;;21.40;14.10;;;;;;;2.73;100.00;152067.28;5055094;28;20466;-83
2021/12/19 22:57:02;;;;;;;20.13;13.70;;;;;;;2.72;100.00;152063.44;5055045;28;20539;-83
2021/12/19 22:59:38;;;;;;;19.30;12.80;;;;;;;2.71;100.00;152060.84;5052043;28;20467;-83
2021/12/19 23:02:14;;;;;;;17.10;13.43;;;;;;;2.70;100.00;152058.31;5035018;28;20449;-83
2021/12/19 23:04:49;;;;;;;22.40;15.40;;;;;;;2.73;100.00;152067.28;5053460;28;20466;-83
2021/12/19 23:07:25;;;;;;;22.93;16.00;;;;;;;2.74;100.00;152069.88;5057530;28;20461;-83
2021/12/19 23:10:00;;;;;;;22.87;14.57;;;;;;;2.75;100.00;152072.47;5035493;28;20999;-83
2021/12/19 23:12:38;;;;;;;22.23;15.13;;;;;;;2.76;100.00;152073.72;5049865;28;20865;-83
2021/12/19 23:15:16;;;;;;;22.20;13.07;;;;;;;2.76;100.00;152073.72;5037613;28;20491;-82
2021/12/19 23:17:58;;;;;;;21.90;13.83;;;;;;;2.77;100.00;152076.28;5048537;28;20446;-82
2021/12/19 23:20:34;;;;;;;20.67;13.63;;;;;;;2.78;100.00;152078.88;5065555;28;20876;-82
2021/12/19 23:23:10;;;;;;;20.10;13.50;;;;;;;2.80;100.00;152084.03;5051197;28;20527;-82
2021/12/19 23:25:57;;;;;;;16.90;12.40;;;;;;;2.79;100.00;152081.44;5036188;28;20458;-83
2021/12/19 23:28:34;;;;;;;22.60;14.80;;;;;;;2.80;100.00;152084.03;5051222;28;20451;-84
2021/12/19 23:31:09;;;;;;;19.10;13.50;;;;;;;2.80;100.00;152084.03;5045482;28;20444;-82
2021/12/19 23:34:04;;;;;;;18.27;12.23;;;;;;;2.80;100.00;152084.03;5050963;28;20515;-82
2021/12/19 23:36:46;;;;;;;22.83;14.27;;;;;;;2.78;100.00;152078.88;5035929;28;20454;-82
2021/12/19 23:39:43;;;;;;;26.57;15.87;;;;;;;2.79;100.00;152081.44;5061467;28;20478;-82
2021/12/19 23:42:25;;;;;;;20.70;14.17;;;;;;;2.78;100.00;152078.88;5049005;28;20443;-83
2021/12/19 23:45:19;;;;;;;21.47;13.80;;;;;;;2.78;100.00;152078.88;5043208;28;20504;-83
2021/12/19 23:47:55;;;;;;;23.07;14.20;;;;;;;2.77;100.00;152076.28;5059882;28;20442;-83
2021/12/19 23:50:31;;;;;;;18.90;14.07;;;;;;;2.78;100.00;152080.13;5067000;28;20431;-83
2021/12/19 23:53:06;;;;;;;19.00;13.77;;;;;;;2.78;100.00;152078.88;5056105;28;20485;-82
2021/12/19 23:55:44;;;;;;;15.60;12.20;;;;;;;2.80;100.00;152084.03;5050737;28;20933;-82
2021/12/19 23:58:19;;;;;;;19.93;12.63;;;;;;;2.80;100.00;152085.31;5050677;28;20868;-83
